sensor_id;sensor_type;location;lat;lon;timestamp;P1;durP1;ratioP1;P2;durP2;ratioP2
12756;SDS011;31601;48.042;12.240;2022-12-26T00:01:04;16.13;;;12.43;;
12756;SDS011;31601;48.042;12.240;2022-12-26T00:03:35;21.83;;;17.67;;
12756;SDS011;31601;48.042;12.240;2022-12-26T00:06:03;22.77;;;17.47;;
12756;SDS011;31601;48.042;12.240;2022-12-26T00:08:36;22.20;;;18.17;;
12756;SDS011;31601;48.042;12.240;2022-12-26T00:11:02;21.80;;;17.03;;
12756;SDS011;31601;48.042;12.240;2022-12-26T00:13:29;21.03;;;16.73;;
12756;SDS011;31601;48.042;12.240;2022-12-26T00:15:55;16.83;;;13.93;;
12756;SDS011;31601;48.042;12.240;2022-12-26T00:18:22;15.03;;;12.20;;
12756;SDS011;31601;48.042;12.240;2022-12-26T00:20:48;17.43;;;14.00;;
12756;SDS011;31601;48.042;12.240;2022-12-26T00:23:16;12.20;;;9.57;;
12756;SDS011;31601;48.042;12.240;2022-12-26T00:25:42;12.97;;;10.80;;
12756;SDS011;31601;48.042;12.240;2022-12-26T00:28:09;11.27;;;8.87;;
12756;SDS011;31601;48.042;12.240;2022-12-26T00:30:36;8.97;;;7.63;;
12756;SDS011;31601;48.042;12.240;2022-12-26T00:33:02;8.23;;;7.10;;
12756;SDS011;31601;48.042;12.240;2022-12-26T00:35:29;7.47;;;6.23;;
12756;SDS011;31601;48.042;12.240;2022-12-26T00:37:55;8.67;;;6.67;;
12756;SDS011;31601;48.042;12.240;2022-12-26T00:40:23;6.97;;;6.03;;
12756;SDS011;31601;48.042;12.240;2022-12-26T00:42:49;6.03;;;5.40;;
12756;SDS011;31601;48.042;12.240;2022-12-26T00:45:16;7.77;;;6.50;;
12756;SDS011;31601;48.042;12.240;2022-12-26T00:47:43;7.23;;;6.50;;
12756;SDS011;31601;48.042;12.240;2022-12-26T00:50:09;8.30;;;6.07;;
12756;SDS011;31601;48.042;12.240;2022-12-26T00:52:35;7.50;;;6.40;;
12756;SDS011;31601;48.042;12.240;2022-12-26T00:55:02;8.37;;;6.93;;
12756;SDS011;31601;48.042;12.240;2022-12-26T00:57:30;6.20;;;5.60;;
12756;SDS011;31601;48.042;12.240;2022-12-26T00:59:56;38.57;;;21.10;;
12756;SDS011;31601;48.042;12.240;2022-12-26T01:02:23;29.10;;;16.00;;
12756;SDS011;31601;48.042;12.240;2022-12-26T01:05:09;51.17;;;22.03;;
12756;SDS011;31601;48.042;12.240;2022-12-26T01:07:37;12.60;;;7.40;;
12756;SDS011;31601;48.042;12.240;2022-12-26T01:10:05;7.17;;;5.57;;
12756;SDS011;31601;48.042;12.240;2022-12-26T01:12:34;8.27;;;5.67;;
12756;SDS011;31601;48.042;12.240;2022-12-26T01:15:02;17.23;;;10.67;;
12756;SDS011;31601;48.042;12.240;2022-12-26T01:17:30;6.57;;;5.70;;
12756;SDS011;31601;48.042;12.240;2022-12-26T01:19:59;13.53;;;8.70;;
12756;SDS011;31601;48.042;12.240;2022-12-26T01:22:26;11.73;;;8.03;;
12756;SDS011;31601;48.042;12.240;2022-12-26T01:24:53;12.73;;;8.60;;
12756;SDS011;31601;48.042;12.240;2022-12-26T01:27:20;12.10;;;7.90;;
12756;SDS011;31601;48.042;12.240;2022-12-26T01:29:48;13.73;;;9.17;;
12756;SDS011;31601;48.042;12.240;2022-12-26T01:32:15;10.70;;;7.50;;
12756;SDS011;31601;48.042;12.240;2022-12-26T01:34:41;13.27;;;8.27;;
12756;SDS011;31601;48.042;12.240;2022-12-26T01:37:09;17.17;;;10.63;;
12756;SDS011;31601;48.042;12.240;2022-12-26T01:39:37;21.03;;;12.53;;
12756;SDS011;31601;48.042;12.240;2022-12-26T01:42:04;31.27;;;15.43;;
12756;SDS011;31601;48.042;12.240;2022-12-26T01:44:53;19.63;;;10.70;;
12756;SDS011;31601;48.042;12.240;2022-12-26T01:47:32;16.10;;;9.20;;
12756;SDS011;31601;48.042;12.240;2022-12-26T01:50:06;15.67;;;9.27;;
12756;SDS011;31601;48.042;12.240;2022-12-26T01:52:45;12.87;;;8.00;;
12756;SDS011;31601;48.042;12.240;2022-12-26T01:55:14;11.57;;;7.57;;
12756;SDS011;31601;48.042;12.240;2022-12-26T01:57:44;11.47;;;7.70;;
12756;SDS011;31601;48.042;12.240;2022-12-26T02:00:16;14.83;;;7.13;;
12756;SDS011;31601;48.042;12.240;2022-12-26T02:02:43;10.03;;;6.63;;
12756;SDS011;31601;48.042;12.240;2022-12-26T02:05:35;9.17;;;6.23;;
12756;SDS011;31601;48.042;12.240;2022-12-26T02:08:03;8.97;;;6.23;;
12756;SDS011;31601;48.042;12.240;2022-12-26T02:10:34;7.33;;;5.43;;
12756;SDS011;31601;48.042;12.240;2022-12-26T02:13:04;9.23;;;6.70;;
12756;SDS011;31601;48.042;12.240;2022-12-26T02:15:32;10.67;;;6.20;;
12756;SDS011;31601;48.042;12.240;2022-12-26T02:17:58;9.03;;;6.40;;
12756;SDS011;31601;48.042;12.240;2022-12-26T02:20:26;6.23;;;5.23;;
12756;SDS011;31601;48.042;12.240;2022-12-26T02:23:03;7.97;;;5.63;;
12756;SDS011;31601;48.042;12.240;2022-12-26T02:29:11;7.77;;;5.50;;
12756;SDS011;31601;48.042;12.240;2022-12-26T02:31:56;5.27;;;4.70;;
12756;SDS011;31601;48.042;12.240;2022-12-26T02:34:35;5.87;;;4.73;;
12756;SDS011;31601;48.042;12.240;2022-12-26T02:37:15;5.43;;;4.50;;
12756;SDS011;31601;48.042;12.240;2022-12-26T02:39:53;6.57;;;4.63;;
12756;SDS011;31601;48.042;12.240;2022-12-26T02:42:30;5.87;;;5.03;;
12756;SDS011;31601;48.042;12.240;2022-12-26T02:45:08;6.63;;;5.13;;
12756;SDS011;31601;48.042;12.240;2022-12-26T02:48:01;6.10;;;4.47;;
12756;SDS011;31601;48.042;12.240;2022-12-26T02:50:35;6.20;;;4.70;;
12756;SDS011;31601;48.042;12.240;2022-12-26T02:53:31;5.77;;;5.10;;
12756;SDS011;31601;48.042;12.240;2022-12-26T02:56:23;6.73;;;5.07;;
12756;SDS011;31601;48.042;12.240;2022-12-26T02:59:11;5.37;;;4.23;;
12756;SDS011;31601;48.042;12.240;2022-12-26T03:02:01;5.83;;;4.47;;
12756;SDS011;31601;48.042;12.240;2022-12-26T03:04:49;6.37;;;4.40;;
12756;SDS011;31601;48.042;12.240;2022-12-26T03:07:37;6.37;;;4.80;;
12756;SDS011;31601;48.042;12.240;2022-12-26T03:10:24;5.73;;;4.70;;
12756;SDS011;31601;48.042;12.240;2022-12-26T03:13:14;6.70;;;4.50;;
12756;SDS011;31601;48.042;12.240;2022-12-26T03:15:48;5.67;;;4.63;;
12756;SDS011;31601;48.042;12.240;2022-12-26T03:18:37;6.70;;;5.40;;
12756;SDS011;31601;48.042;12.240;2022-12-26T03:21:08;6.00;;;4.97;;
12756;SDS011;31601;48.042;12.240;2022-12-26T03:23:37;7.33;;;4.50;;
12756;SDS011;31601;48.042;12.240;2022-12-26T03:26:08;4.57;;;4.00;;
12756;SDS011;31601;48.042;12.240;2022-12-26T03:28:57;5.77;;;4.30;;
12756;SDS011;31601;48.042;12.240;2022-12-26T03:31:43;4.93;;;4.27;;
12756;SDS011;31601;48.042;12.240;2022-12-26T03:34:09;6.37;;;4.43;;
12756;SDS011;31601;48.042;12.240;2022-12-26T03:36:53;5.87;;;4.50;;
12756;SDS011;31601;48.042;12.240;2022-12-26T03:39:28;4.73;;;4.23;;
12756;SDS011;31601;48.042;12.240;2022-12-26T03:42:16;4.63;;;3.90;;
12756;SDS011;31601;48.042;12.240;2022-12-26T03:45:12;5.13;;;4.27;;
12756;SDS011;31601;48.042;12.240;2022-12-26T03:48:05;5.80;;;4.30;;
12756;SDS011;31601;48.042;12.240;2022-12-26T03:51:03;4.97;;;4.47;;
12756;SDS011;31601;48.042;12.240;2022-12-26T03:53:53;4.93;;;4.10;;
12756;SDS011;31601;48.042;12.240;2022-12-26T03:56:44;6.50;;;4.50;;
12756;SDS011;31601;48.042;12.240;2022-12-26T03:59:31;4.87;;;4.23;;
12756;SDS011;31601;48.042;12.240;2022-12-26T04:02:18;6.53;;;4.70;;
12756;SDS011;31601;48.042;12.240;2022-12-26T04:05:04;7.47;;;4.70;;
12756;SDS011;31601;48.042;12.240;2022-12-26T04:07:51;5.97;;;4.83;;
12756;SDS011;31601;48.042;12.240;2022-12-26T04:10:42;5.83;;;4.43;;
12756;SDS011;31601;48.042;12.240;2022-12-26T04:13:43;6.20;;;4.33;;
12756;SDS011;31601;48.042;12.240;2022-12-26T04:16:33;6.60;;;5.63;;
12756;SDS011;31601;48.042;12.240;2022-12-26T04:19:25;5.67;;;4.90;;
12756;SDS011;31601;48.042;12.240;2022-12-26T04:22:06;6.23;;;4.63;;
12756;SDS011;31601;48.042;12.240;2022-12-26T04:24:58;6.50;;;4.83;;
12756;SDS011;31601;48.042;12.240;2022-12-26T04:27:52;5.63;;;4.37;;
12756;SDS011;31601;48.042;12.240;2022-12-26T04:30:37;5.57;;;4.30;;
12756;SDS011;31601;48.042;12.240;2022-12-26T04:33:25;4.90;;;4.40;;
12756;SDS011;31601;48.042;12.240;2022-12-26T04:36:14;7.30;;;5.00;;
12756;SDS011;31601;48.042;12.240;2022-12-26T04:39:03;6.87;;;4.70;;
12756;SDS011;31601;48.042;12.240;2022-12-26T04:41:52;5.13;;;4.27;;
12756;SDS011;31601;48.042;12.240;2022-12-26T04:44:39;6.33;;;4.50;;
12756;SDS011;31601;48.042;12.240;2022-12-26T04:47:07;4.93;;;3.83;;
12756;SDS011;31601;48.042;12.240;2022-12-26T04:49:40;5.77;;;4.23;;
12756;SDS011;31601;48.042;12.240;2022-12-26T04:52:25;5.80;;;4.23;;
12756;SDS011;31601;48.042;12.240;2022-12-26T04:55:13;6.07;;;4.40;;
12756;SDS011;31601;48.042;12.240;2022-12-26T04:57:39;4.67;;;4.07;;
12756;SDS011;31601;48.042;12.240;2022-12-26T05:00:08;5.77;;;4.60;;
12756;SDS011;31601;48.042;12.240;2022-12-26T05:02:35;6.63;;;4.80;;
12756;SDS011;31601;48.042;12.240;2022-12-26T05:05:19;7.23;;;4.53;;
12756;SDS011;31601;48.042;12.240;2022-12-26T05:08:03;4.67;;;3.80;;
12756;SDS011;31601;48.042;12.240;2022-12-26T05:10:47;5.77;;;4.60;;
12756;SDS011;31601;48.042;12.240;2022-12-26T05:13:13;10.23;;;4.83;;
12756;SDS011;31601;48.042;12.240;2022-12-26T05:15:41;5.17;;;4.27;;
12756;SDS011;31601;48.042;12.240;2022-12-26T05:18:21;4.60;;;3.77;;
12756;SDS011;31601;48.042;12.240;2022-12-26T05:21:06;6.17;;;4.30;;
12756;SDS011;31601;48.042;12.240;2022-12-26T05:23:53;6.50;;;5.00;;
12756;SDS011;31601;48.042;12.240;2022-12-26T05:26:38;6.87;;;4.87;;
12756;SDS011;31601;48.042;12.240;2022-12-26T05:29:22;5.70;;;4.77;;
12756;SDS011;31601;48.042;12.240;2022-12-26T05:31:51;11.33;;;5.30;;
12756;SDS011;31601;48.042;12.240;2022-12-26T05:34:18;6.53;;;4.57;;
12756;SDS011;31601;48.042;12.240;2022-12-26T05:36:46;6.37;;;4.80;;
12756;SDS011;31601;48.042;12.240;2022-12-26T05:39:15;4.90;;;4.27;;
12756;SDS011;31601;48.042;12.240;2022-12-26T05:41:42;5.57;;;4.20;;
12756;SDS011;31601;48.042;12.240;2022-12-26T05:44:08;5.13;;;3.90;;
12756;SDS011;31601;48.042;12.240;2022-12-26T05:46:35;4.47;;;3.93;;
12756;SDS011;31601;48.042;12.240;2022-12-26T05:49:04;6.23;;;4.20;;
12756;SDS011;31601;48.042;12.240;2022-12-26T05:51:31;5.67;;;4.50;;
12756;SDS011;31601;48.042;12.240;2022-12-26T05:53:57;6.20;;;4.50;;
12756;SDS011;31601;48.042;12.240;2022-12-26T05:56:24;8.00;;;4.70;;
12756;SDS011;31601;48.042;12.240;2022-12-26T05:58:52;6.13;;;4.10;;
12756;SDS011;31601;48.042;12.240;2022-12-26T06:01:19;5.70;;;4.73;;
12756;SDS011;31601;48.042;12.240;2022-12-26T06:03:47;5.20;;;4.53;;
12756;SDS011;31601;48.042;12.240;2022-12-26T06:06:16;6.13;;;4.67;;
12756;SDS011;31601;48.042;12.240;2022-12-26T06:08:45;7.10;;;5.23;;
12756;SDS011;31601;48.042;12.240;2022-12-26T06:11:12;6.37;;;4.67;;
12756;SDS011;31601;48.042;12.240;2022-12-26T06:13:39;5.93;;;4.00;;
12756;SDS011;31601;48.042;12.240;2022-12-26T06:16:06;6.57;;;4.60;;
12756;SDS011;31601;48.042;12.240;2022-12-26T06:18:34;5.50;;;4.77;;
12756;SDS011;31601;48.042;12.240;2022-12-26T06:21:03;5.23;;;4.37;;
12756;SDS011;31601;48.042;12.240;2022-12-26T06:23:32;5.13;;;4.50;;
12756;SDS011;31601;48.042;12.240;2022-12-26T06:25:59;4.90;;;4.40;;
12756;SDS011;31601;48.042;12.240;2022-12-26T06:28:26;5.57;;;4.67;;
12756;SDS011;31601;48.042;12.240;2022-12-26T06:30:53;5.00;;;4.33;;
12756;SDS011;31601;48.042;12.240;2022-12-26T06:33:19;5.13;;;4.37;;
12756;SDS011;31601;48.042;12.240;2022-12-26T06:35:46;8.37;;;4.77;;
12756;SDS011;31601;48.042;12.240;2022-12-26T06:38:12;5.40;;;4.53;;
12756;SDS011;31601;48.042;12.240;2022-12-26T06:40:40;6.57;;;4.20;;
12756;SDS011;31601;48.042;12.240;2022-12-26T06:43:07;8.03;;;5.20;;
12756;SDS011;31601;48.042;12.240;2022-12-26T06:45:34;5.60;;;4.53;;
12756;SDS011;31601;48.042;12.240;2022-12-26T06:48:00;6.33;;;4.23;;
12756;SDS011;31601;48.042;12.240;2022-12-26T06:50:27;6.03;;;5.00;;
12756;SDS011;31601;48.042;12.240;2022-12-26T06:52:54;7.77;;;5.30;;
12756;SDS011;31601;48.042;12.240;2022-12-26T06:55:20;5.63;;;5.00;;
12756;SDS011;31601;48.042;12.240;2022-12-26T06:57:48;6.63;;;5.30;;
12756;SDS011;31601;48.042;12.240;2022-12-26T07:00:16;6.60;;;5.73;;
12756;SDS011;31601;48.042;12.240;2022-12-26T07:02:43;7.47;;;5.43;;
12756;SDS011;31601;48.042;12.240;2022-12-26T07:05:10;7.83;;;5.40;;
12756;SDS011;31601;48.042;12.240;2022-12-26T07:07:36;6.10;;;5.37;;
12756;SDS011;31601;48.042;12.240;2022-12-26T07:10:02;6.17;;;5.20;;
12756;SDS011;31601;48.042;12.240;2022-12-26T07:12:29;6.70;;;5.07;;
12756;SDS011;31601;48.042;12.240;2022-12-26T07:14:57;6.40;;;5.00;;
12756;SDS011;31601;48.042;12.240;2022-12-26T07:17:23;6.90;;;5.27;;
12756;SDS011;31601;48.042;12.240;2022-12-26T07:19:50;6.57;;;4.73;;
12756;SDS011;31601;48.042;12.240;2022-12-26T07:22:16;6.20;;;5.37;;
12756;SDS011;31601;48.042;12.240;2022-12-26T07:24:42;7.20;;;4.87;;
12756;SDS011;31601;48.042;12.240;2022-12-26T07:27:09;6.40;;;5.10;;
12756;SDS011;31601;48.042;12.240;2022-12-26T07:29:35;7.10;;;5.43;;
12756;SDS011;31601;48.042;12.240;2022-12-26T07:32:03;6.40;;;5.03;;
12756;SDS011;31601;48.042;12.240;2022-12-26T07:34:30;6.57;;;4.83;;
12756;SDS011;31601;48.042;12.240;2022-12-26T07:36:56;6.40;;;4.90;;
12756;SDS011;31601;48.042;12.240;2022-12-26T07:39:23;5.90;;;4.53;;
12756;SDS011;31601;48.042;12.240;2022-12-26T07:41:49;5.47;;;4.60;;
12756;SDS011;31601;48.042;12.240;2022-12-26T07:44:25;5.83;;;4.53;;
12756;SDS011;31601;48.042;12.240;2022-12-26T07:46:53;5.30;;;4.40;;
12756;SDS011;31601;48.042;12.240;2022-12-26T07:49:21;5.07;;;4.13;;
12756;SDS011;31601;48.042;12.240;2022-12-26T07:51:48;5.43;;;4.70;;
12756;SDS011;31601;48.042;12.240;2022-12-26T07:54:15;4.73;;;3.90;;
12756;SDS011;31601;48.042;12.240;2022-12-26T07:56:42;5.87;;;4.70;;
12756;SDS011;31601;48.042;12.240;2022-12-26T07:59:10;8.90;;;6.53;;
12756;SDS011;31601;48.042;12.240;2022-12-26T08:01:39;8.87;;;6.73;;
12756;SDS011;31601;48.042;12.240;2022-12-26T08:04:05;10.00;;;6.80;;
12756;SDS011;31601;48.042;12.240;2022-12-26T08:06:33;7.97;;;6.10;;
12756;SDS011;31601;48.042;12.240;2022-12-26T08:08:59;7.27;;;5.70;;
12756;SDS011;31601;48.042;12.240;2022-12-26T08:11:26;7.23;;;5.67;;
12756;SDS011;31601;48.042;12.240;2022-12-26T08:13:53;6.20;;;4.90;;
12756;SDS011;31601;48.042;12.240;2022-12-26T08:16:20;7.53;;;5.60;;
12756;SDS011;31601;48.042;12.240;2022-12-26T08:18:46;5.97;;;5.17;;
12756;SDS011;31601;48.042;12.240;2022-12-26T08:21:13;6.10;;;5.13;;
12756;SDS011;31601;48.042;12.240;2022-12-26T08:23:41;7.87;;;5.57;;
12756;SDS011;31601;48.042;12.240;2022-12-26T08:26:08;7.37;;;5.20;;
12756;SDS011;31601;48.042;12.240;2022-12-26T08:28:37;7.80;;;5.50;;
12756;SDS011;31601;48.042;12.240;2022-12-26T08:31:04;7.67;;;6.50;;
12756;SDS011;31601;48.042;12.240;2022-12-26T08:33:32;10.07;;;7.23;;
12756;SDS011;31601;48.042;12.240;2022-12-26T08:36:00;10.27;;;7.27;;
12756;SDS011;31601;48.042;12.240;2022-12-26T08:38:27;9.63;;;7.33;;
12756;SDS011;31601;48.042;12.240;2022-12-26T08:40:54;20.23;;;13.30;;
12756;SDS011;31601;48.042;12.240;2022-12-26T08:43:21;14.87;;;10.73;;
12756;SDS011;31601;48.042;12.240;2022-12-26T08:45:55;11.77;;;8.13;;
12756;SDS011;31601;48.042;12.240;2022-12-26T08:48:22;9.43;;;7.57;;
12756;SDS011;31601;48.042;12.240;2022-12-26T08:50:53;10.70;;;8.13;;
12756;SDS011;31601;48.042;12.240;2022-12-26T08:53:20;11.43;;;7.80;;
12756;SDS011;31601;48.042;12.240;2022-12-26T08:55:47;7.30;;;6.57;;
12756;SDS011;31601;48.042;12.240;2022-12-26T08:58:14;7.00;;;6.07;;
12756;SDS011;31601;48.042;12.240;2022-12-26T09:00:41;8.00;;;5.47;;
12756;SDS011;31601;48.042;12.240;2022-12-26T09:03:07;10.03;;;7.30;;
12756;SDS011;31601;48.042;12.240;2022-12-26T09:05:34;7.10;;;5.87;;
12756;SDS011;31601;48.042;12.240;2022-12-26T09:08:00;6.10;;;4.87;;
12756;SDS011;31601;48.042;12.240;2022-12-26T09:10:27;6.00;;;4.73;;
12756;SDS011;31601;48.042;12.240;2022-12-26T09:12:53;5.63;;;4.27;;
12756;SDS011;31601;48.042;12.240;2022-12-26T09:15:21;5.73;;;4.90;;
12756;SDS011;31601;48.042;12.240;2022-12-26T09:17:48;4.73;;;4.20;;
12756;SDS011;31601;48.042;12.240;2022-12-26T09:20:14;5.83;;;5.10;;
12756;SDS011;31601;48.042;12.240;2022-12-26T09:22:41;9.70;;;7.67;;
12756;SDS011;31601;48.042;12.240;2022-12-26T09:25:17;33.70;;;25.10;;
12756;SDS011;31601;48.042;12.240;2022-12-26T09:27:43;5.43;;;4.57;;
12756;SDS011;31601;48.042;12.240;2022-12-26T09:30:10;5.70;;;4.57;;
12756;SDS011;31601;48.042;12.240;2022-12-26T09:32:39;6.83;;;6.13;;
12756;SDS011;31601;48.042;12.240;2022-12-26T09:35:05;7.70;;;6.53;;
12756;SDS011;31601;48.042;12.240;2022-12-26T09:37:32;6.70;;;5.70;;
12756;SDS011;31601;48.042;12.240;2022-12-26T09:39:59;7.83;;;6.40;;
12756;SDS011;31601;48.042;12.240;2022-12-26T09:42:27;6.67;;;6.07;;
12756;SDS011;31601;48.042;12.240;2022-12-26T09:45:03;5.57;;;5.07;;
12756;SDS011;31601;48.042;12.240;2022-12-26T09:47:38;5.17;;;4.60;;
12756;SDS011;31601;48.042;12.240;2022-12-26T09:50:15;6.77;;;5.13;;
12756;SDS011;31601;48.042;12.240;2022-12-26T09:52:50;5.43;;;4.33;;
12756;SDS011;31601;48.042;12.240;2022-12-26T09:55:30;4.27;;;3.83;;
12756;SDS011;31601;48.042;12.240;2022-12-26T09:58:04;3.63;;;3.33;;
12756;SDS011;31601;48.042;12.240;2022-12-26T10:00:41;4.93;;;3.80;;
12756;SDS011;31601;48.042;12.240;2022-12-26T10:03:12;4.17;;;3.33;;
12756;SDS011;31601;48.042;12.240;2022-12-26T10:05:39;3.77;;;3.33;;
12756;SDS011;31601;48.042;12.240;2022-12-26T10:08:19;8.40;;;6.30;;
12756;SDS011;31601;48.042;12.240;2022-12-26T10:10:54;5.97;;;4.50;;
12756;SDS011;31601;48.042;12.240;2022-12-26T10:13:26;5.33;;;3.63;;
12756;SDS011;31601;48.042;12.240;2022-12-26T10:16:01;3.20;;;2.70;;
12756;SDS011;31601;48.042;12.240;2022-12-26T10:18:34;2.97;;;2.70;;
12756;SDS011;31601;48.042;12.240;2022-12-26T10:21:10;5.20;;;3.63;;
12756;SDS011;31601;48.042;12.240;2022-12-26T10:23:46;4.47;;;3.60;;
12756;SDS011;31601;48.042;12.240;2022-12-26T10:26:18;4.73;;;3.70;;
12756;SDS011;31601;48.042;12.240;2022-12-26T10:28:48;5.17;;;3.57;;
12756;SDS011;31601;48.042;12.240;2022-12-26T10:31:23;3.60;;;3.20;;
12756;SDS011;31601;48.042;12.240;2022-12-26T10:33:55;3.83;;;3.20;;
12756;SDS011;31601;48.042;12.240;2022-12-26T10:36:28;4.50;;;3.37;;
12756;SDS011;31601;48.042;12.240;2022-12-26T10:38:58;5.17;;;4.20;;
12756;SDS011;31601;48.042;12.240;2022-12-26T10:41:30;4.57;;;3.83;;
12756;SDS011;31601;48.042;12.240;2022-12-26T10:44:00;4.57;;;4.00;;
12756;SDS011;31601;48.042;12.240;2022-12-26T10:46:40;4.17;;;3.77;;
12756;SDS011;31601;48.042;12.240;2022-12-26T10:49:21;4.37;;;3.80;;
12756;SDS011;31601;48.042;12.240;2022-12-26T10:51:49;5.73;;;3.77;;
12756;SDS011;31601;48.042;12.240;2022-12-26T10:54:16;7.43;;;3.67;;
12756;SDS011;31601;48.042;12.240;2022-12-26T10:56:44;4.20;;;3.30;;
12756;SDS011;31601;48.042;12.240;2022-12-26T10:59:14;4.17;;;3.43;;
12756;SDS011;31601;48.042;12.240;2022-12-26T11:01:42;3.93;;;3.23;;
12756;SDS011;31601;48.042;12.240;2022-12-26T11:04:15;3.43;;;2.93;;
12756;SDS011;31601;48.042;12.240;2022-12-26T11:06:47;4.13;;;3.13;;
12756;SDS011;31601;48.042;12.240;2022-12-26T11:12:05;3.10;;;2.67;;
12756;SDS011;31601;48.042;12.240;2022-12-26T11:14:43;3.17;;;2.60;;
12756;SDS011;31601;48.042;12.240;2022-12-26T11:17:11;6.10;;;3.10;;
12756;SDS011;31601;48.042;12.240;2022-12-26T11:19:39;3.07;;;2.50;;
12756;SDS011;31601;48.042;12.240;2022-12-26T11:22:21;3.70;;;2.30;;
12756;SDS011;31601;48.042;12.240;2022-12-26T11:27:41;3.03;;;2.37;;
12756;SDS011;31601;48.042;12.240;2022-12-26T11:30:09;5.03;;;2.73;;
12756;SDS011;31601;48.042;12.240;2022-12-26T11:32:46;8.07;;;6.50;;
12756;SDS011;31601;48.042;12.240;2022-12-26T11:35:16;5.57;;;4.77;;
12756;SDS011;31601;48.042;12.240;2022-12-26T11:37:45;3.73;;;3.30;;
12756;SDS011;31601;48.042;12.240;2022-12-26T11:40:16;6.17;;;4.90;;
12756;SDS011;31601;48.042;12.240;2022-12-26T11:42:47;5.53;;;3.77;;
12756;SDS011;31601;48.042;12.240;2022-12-26T11:45:19;5.47;;;3.70;;
12756;SDS011;31601;48.042;12.240;2022-12-26T11:47:47;5.30;;;4.10;;
12756;SDS011;31601;48.042;12.240;2022-12-26T11:50:15;4.73;;;3.67;;
12756;SDS011;31601;48.042;12.240;2022-12-26T11:52:49;5.23;;;3.50;;
12756;SDS011;31601;48.042;12.240;2022-12-26T11:55:25;2.63;;;2.40;;
12756;SDS011;31601;48.042;12.240;2022-12-26T11:57:55;4.47;;;3.10;;
12756;SDS011;31601;48.042;12.240;2022-12-26T12:00:23;5.13;;;2.17;;
12756;SDS011;31601;48.042;12.240;2022-12-26T12:02:50;2.83;;;2.40;;
12756;SDS011;31601;48.042;12.240;2022-12-26T12:05:22;2.63;;;2.30;;
12756;SDS011;31601;48.042;12.240;2022-12-26T12:10:53;6.07;;;3.03;;
12756;SDS011;31601;48.042;12.240;2022-12-26T12:13:36;4.37;;;3.00;;
12756;SDS011;31601;48.042;12.240;2022-12-26T12:16:12;3.27;;;2.70;;
12756;SDS011;31601;48.042;12.240;2022-12-26T12:18:55;3.63;;;2.70;;
12756;SDS011;31601;48.042;12.240;2022-12-26T12:21:34;12.77;;;4.57;;
12756;SDS011;31601;48.042;12.240;2022-12-26T12:24:22;3.33;;;2.97;;
12756;SDS011;31601;48.042;12.240;2022-12-26T12:27:03;2.83;;;2.50;;
12756;SDS011;31601;48.042;12.240;2022-12-26T12:29:40;3.63;;;2.40;;
12756;SDS011;31601;48.042;12.240;2022-12-26T12:32:21;10.03;;;5.67;;
12756;SDS011;31601;48.042;12.240;2022-12-26T12:37:50;15.30;;;11.13;;
12756;SDS011;31601;48.042;12.240;2022-12-26T12:40:31;6.73;;;6.03;;
12756;SDS011;31601;48.042;12.240;2022-12-26T12:43:07;5.27;;;4.60;;
12756;SDS011;31601;48.042;12.240;2022-12-26T12:45:41;3.00;;;2.70;;
12756;SDS011;31601;48.042;12.240;2022-12-26T12:51:26;9.47;;;6.70;;
12756;SDS011;31601;48.042;12.240;2022-12-26T12:57:11;11.37;;;7.53;;
12756;SDS011;31601;48.042;12.240;2022-12-26T12:59:49;11.53;;;8.83;;
12756;SDS011;31601;48.042;12.240;2022-12-26T13:02:27;10.43;;;8.03;;
12756;SDS011;31601;48.042;12.240;2022-12-26T13:04:58;11.87;;;8.27;;
12756;SDS011;31601;48.042;12.240;2022-12-26T13:07:38;9.70;;;7.97;;
12756;SDS011;31601;48.042;12.240;2022-12-26T13:10:12;8.37;;;6.97;;
12756;SDS011;31601;48.042;12.240;2022-12-26T13:12:45;7.93;;;5.80;;
12756;SDS011;31601;48.042;12.240;2022-12-26T13:15:19;5.27;;;4.43;;
12756;SDS011;31601;48.042;12.240;2022-12-26T13:17:55;8.43;;;7.13;;
12756;SDS011;31601;48.042;12.240;2022-12-26T13:20:27;7.13;;;4.47;;
12756;SDS011;31601;48.042;12.240;2022-12-26T13:23:00;3.13;;;2.73;;
12756;SDS011;31601;48.042;12.240;2022-12-26T13:25:49;6.53;;;3.10;;
12756;SDS011;31601;48.042;12.240;2022-12-26T13:28:29;4.37;;;3.17;;
12756;SDS011;31601;48.042;12.240;2022-12-26T13:31:02;8.87;;;3.87;;
12756;SDS011;31601;48.042;12.240;2022-12-26T13:33:29;5.70;;;4.23;;
12756;SDS011;31601;48.042;12.240;2022-12-26T13:35:57;4.73;;;2.90;;
12756;SDS011;31601;48.042;12.240;2022-12-26T13:38:25;5.30;;;3.13;;
12756;SDS011;31601;48.042;12.240;2022-12-26T13:41:25;3.93;;;2.20;;
12756;SDS011;31601;48.042;12.240;2022-12-26T13:44:23;3.33;;;2.70;;
12756;SDS011;31601;48.042;12.240;2022-12-26T13:46:55;3.60;;;2.80;;
12756;SDS011;31601;48.042;12.240;2022-12-26T13:49:27;4.97;;;2.27;;
12756;SDS011;31601;48.042;12.240;2022-12-26T13:55:17;7.83;;;3.00;;
12756;SDS011;31601;48.042;12.240;2022-12-26T13:58:05;8.50;;;2.97;;
12756;SDS011;31601;48.042;12.240;2022-12-26T14:00:45;8.60;;;3.00;;
12756;SDS011;31601;48.042;12.240;2022-12-26T14:03:19;8.30;;;3.47;;
12756;SDS011;31601;48.042;12.240;2022-12-26T14:06:09;8.80;;;3.67;;
12756;SDS011;31601;48.042;12.240;2022-12-26T14:08:59;3.80;;;3.00;;
12756;SDS011;31601;48.042;12.240;2022-12-26T14:11:38;5.43;;;2.80;;
12756;SDS011;31601;48.042;12.240;2022-12-26T14:14:18;3.17;;;2.40;;
12756;SDS011;31601;48.042;12.240;2022-12-26T14:16:55;3.67;;;2.70;;
12756;SDS011;31601;48.042;12.240;2022-12-26T14:19:34;6.43;;;3.30;;
12756;SDS011;31601;48.042;12.240;2022-12-26T14:22:10;4.03;;;3.00;;
12756;SDS011;31601;48.042;12.240;2022-12-26T14:24:46;4.70;;;2.83;;
12756;SDS011;31601;48.042;12.240;2022-12-26T14:27:26;3.30;;;2.53;;
12756;SDS011;31601;48.042;12.240;2022-12-26T14:30:16;4.90;;;3.27;;
12756;SDS011;31601;48.042;12.240;2022-12-26T14:32:56;4.43;;;3.13;;
12756;SDS011;31601;48.042;12.240;2022-12-26T14:36:03;3.63;;;2.83;;
12756;SDS011;31601;48.042;12.240;2022-12-26T14:38:42;5.37;;;3.47;;
12756;SDS011;31601;48.042;12.240;2022-12-26T14:41:13;6.30;;;3.47;;
12756;SDS011;31601;48.042;12.240;2022-12-26T14:43:55;4.93;;;2.90;;
12756;SDS011;31601;48.042;12.240;2022-12-26T14:49:34;5.70;;;2.97;;
12756;SDS011;31601;48.042;12.240;2022-12-26T14:55:01;4.00;;;3.20;;
12756;SDS011;31601;48.042;12.240;2022-12-26T14:58:18;3.77;;;2.70;;
12756;SDS011;31601;48.042;12.240;2022-12-26T15:00:51;4.70;;;2.70;;
12756;SDS011;31601;48.042;12.240;2022-12-26T15:03:38;3.37;;;2.33;;
12756;SDS011;31601;48.042;12.240;2022-12-26T15:06:23;3.40;;;2.67;;
12756;SDS011;31601;48.042;12.240;2022-12-26T15:09:10;7.57;;;3.47;;
12756;SDS011;31601;48.042;12.240;2022-12-26T15:11:55;3.57;;;2.70;;
12756;SDS011;31601;48.042;12.240;2022-12-26T15:14:41;3.73;;;3.00;;
12756;SDS011;31601;48.042;12.240;2022-12-26T15:17:24;3.63;;;2.80;;
12756;SDS011;31601;48.042;12.240;2022-12-26T15:20:08;5.33;;;3.07;;
12756;SDS011;31601;48.042;12.240;2022-12-26T15:23:02;5.87;;;2.90;;
12756;SDS011;31601;48.042;12.240;2022-12-26T15:28:45;4.33;;;2.40;;
12756;SDS011;31601;48.042;12.240;2022-12-26T15:34:27;4.50;;;2.83;;
12756;SDS011;31601;48.042;12.240;2022-12-26T15:37:04;5.07;;;2.70;;
12756;SDS011;31601;48.042;12.240;2022-12-26T15:39:38;4.83;;;2.90;;
12756;SDS011;31601;48.042;12.240;2022-12-26T15:42:14;2.40;;;2.17;;
12756;SDS011;31601;48.042;12.240;2022-12-26T15:44:54;5.30;;;2.63;;
12756;SDS011;31601;48.042;12.240;2022-12-26T15:47:32;2.40;;;1.90;;